createdAt,value
2018-11-29T00:02:45.940Z,31.23
2018-11-29T00:06:49.500Z,31.30
2018-11-29T00:10:53.060Z,31.57
2018-11-29T00:14:56.520Z,30.33
2018-11-29T00:19:00.109Z,32.30
2018-11-29T00:23:03.707Z,32.53
2018-11-29T00:27:07.212Z,35.23
2018-11-29T00:31:10.813Z,31.43
2018-11-29T00:35:15.054Z,31.47
2018-11-29T00:39:18.540Z,31.87
2018-11-29T00:43:22.190Z,33.80
2018-11-29T00:47:25.735Z,35.10
2018-11-29T00:51:29.303Z,29.53
2018-11-29T00:55:32.836Z,40.93
2018-11-29T00:59:36.660Z,38.10
2018-11-29T01:03:40.254Z,41.50
2018-11-29T01:07:43.777Z,37.87
2018-11-29T01:11:47.320Z,37.07
2018-11-29T01:15:50.848Z,39.33
2018-11-29T01:19:54.373Z,37.33
2018-11-29T01:23:57.890Z,35.57
2018-11-29T01:28:01.410Z,38.77
2018-11-29T01:32:04.911Z,34.63
2018-11-29T01:36:14.961Z,36.07
2018-11-29T01:40:22.631Z,36.37
2018-11-29T01:44:26.599Z,36.50
2018-11-29T01:48:30.155Z,34.40
2018-11-29T01:52:33.817Z,37.93
2018-11-29T01:56:37.330Z,29.80
2018-11-29T02:00:41.226Z,34.10
2018-11-29T02:04:44.757Z,30.23
2018-11-29T02:08:48.238Z,35.53
2018-11-29T02:12:53.148Z,37.00
2018-11-29T02:16:56.613Z,34.17
2018-11-29T02:21:00.137Z,30.77
2018-11-29T02:25:03.654Z,35.77
2018-11-29T02:29:07.128Z,35.43
2018-11-29T02:33:10.646Z,33.60
2018-11-29T02:37:16.302Z,34.77
2018-11-29T02:41:20.238Z,31.37
2018-11-29T02:45:24.905Z,30.57
2018-11-29T02:49:28.359Z,44.40
2018-11-29T02:53:31.924Z,35.97
2018-11-29T02:57:35.979Z,33.73
2018-11-29T03:01:39.704Z,36.50
2018-11-29T03:05:51.512Z,41.70
2018-11-29T03:09:55.058Z,30.77
2018-11-29T03:13:58.639Z,29.43
2018-11-29T03:18:02.530Z,35.77
2018-11-29T03:22:06.420Z,35.33
2018-11-29T03:26:10.228Z,36.37
2018-11-29T03:30:17.174Z,35.13
2018-11-29T03:34:20.704Z,36.63
2018-11-29T03:38:24.264Z,37.20
2018-11-29T03:42:27.747Z,42.10
2018-11-29T03:46:31.334Z,35.53
2018-11-29T03:50:34.944Z,32.97
2018-11-29T03:54:38.503Z,34.00
2018-11-29T03:58:42.109Z,36.33
2018-11-29T04:02:46.747Z,37.17
2018-11-29T04:06:50.271Z,36.10
2018-11-29T04:10:53.849Z,35.60
2018-11-29T04:14:57.378Z,43.03
2018-11-29T04:19:01.563Z,38.73
2018-11-29T04:23:05.183Z,39.27
2018-11-29T04:27:08.664Z,37.13
2018-11-29T04:31:12.131Z,34.20
2018-11-29T04:35:15.652Z,35.93
2018-11-29T04:39:19.096Z,32.20
2018-11-29T04:43:22.648Z,38.53
2018-11-29T04:47:26.145Z,46.13
2018-11-29T04:51:29.865Z,39.17
2018-11-29T04:55:33.377Z,33.83
2018-11-29T04:59:36.835Z,39.40
2018-11-29T05:03:40.419Z,35.40
2018-11-29T05:07:44.010Z,40.60
2018-11-29T05:11:47.932Z,40.63
2018-11-29T05:15:51.507Z,34.43
2018-11-29T05:19:55.260Z,39.53
2018-11-29T05:24:03.239Z,37.97
2018-11-29T05:28:06.842Z,40.27
2018-11-29T05:32:10.362Z,33.03
2018-11-29T05:36:13.851Z,38.53
2018-11-29T05:40:17.913Z,31.33
2018-11-29T05:44:21.520Z,36.03
2018-11-29T05:48:24.996Z,31.13
2018-11-29T05:52:28.542Z,36.57
2018-11-29T05:56:32.063Z,31.07
2018-11-29T06:00:35.646Z,31.23
2018-11-29T06:04:46.563Z,28.60
2018-11-29T06:08:50.188Z,30.57
2018-11-29T06:12:53.754Z,29.07
2018-11-29T06:16:57.286Z,26.63
2018-11-29T06:21:00.929Z,30.40
2018-11-29T06:25:04.425Z,25.30
2018-11-29T06:29:08.043Z,24.03
2018-11-29T06:33:11.595Z,33.80
2018-11-29T06:37:15.162Z,27.30
2018-11-29T06:41:18.712Z,27.27
2018-11-29T06:45:22.651Z,26.93
2018-11-29T06:49:26.154Z,31.90
2018-11-29T06:53:34.929Z,25.20
2018-11-29T06:57:38.428Z,21.83
2018-11-29T07:01:41.919Z,26.60
2018-11-29T07:05:45.436Z,18.67
2018-11-29T07:09:48.929Z,19.57
2018-11-29T07:13:52.474Z,18.07
2018-11-29T07:17:56.242Z,14.23
2018-11-29T07:21:59.744Z,14.13
2018-11-29T07:26:03.355Z,15.90
2018-11-29T07:30:14.412Z,17.83
2018-11-29T07:34:17.987Z,17.63
2018-11-29T07:38:21.516Z,15.00
2018-11-29T07:42:25.094Z,17.83
2018-11-29T07:46:28.553Z,14.13
2018-11-29T07:50:32.060Z,15.37
2018-11-29T07:54:35.586Z,18.17
2018-11-29T07:58:39.052Z,14.77
2018-11-29T08:02:42.541Z,18.80
2018-11-29T08:06:46.072Z,17.73
2018-11-29T08:10:49.736Z,17.27
2018-11-29T08:14:53.600Z,19.97
2018-11-29T08:18:57.088Z,22.73
2018-11-29T08:23:00.849Z,25.03
2018-11-29T08:27:04.456Z,28.33
2018-11-29T08:31:07.925Z,30.13
2018-11-29T08:35:13.413Z,36.57
2018-11-29T08:39:16.893Z,40.53
2018-11-29T08:43:20.629Z,42.70
2018-11-29T08:47:24.202Z,42.33
2018-11-29T08:51:27.847Z,42.57
2018-11-29T08:55:31.378Z,42.27
2018-11-29T08:59:34.933Z,41.83
2018-11-29T09:03:38.873Z,42.47
2018-11-29T09:07:43.665Z,44.80
2018-11-29T09:11:47.224Z,42.27
2018-11-29T09:15:50.702Z,42.23
2018-11-29T09:19:54.154Z,39.97
2018-11-29T09:23:57.729Z,39.20
2018-11-29T09:28:01.476Z,39.57
2018-11-29T09:32:05.972Z,38.17
2018-11-29T09:36:09.547Z,40.33
2018-11-29T09:40:15.200Z,37.30
2018-11-29T09:44:18.842Z,32.30
2018-11-29T09:48:22.611Z,35.63
2018-11-29T09:52:26.861Z,36.70
2018-11-29T09:56:30.495Z,35.23
2018-11-29T10:00:34.303Z,35.53
2018-11-29T10:04:37.788Z,30.57
2018-11-29T10:08:41.406Z,32.13
2018-11-29T10:12:45.171Z,31.53
2018-11-29T10:16:48.737Z,31.53
2018-11-29T10:20:52.325Z,27.57
2018-11-29T10:24:55.877Z,30.43
2018-11-29T10:28:59.397Z,29.33
2018-11-29T10:33:02.943Z,26.07
2018-11-29T10:37:06.647Z,28.77
2018-11-29T10:41:10.161Z,28.00
2018-11-29T10:45:16.136Z,27.17
2018-11-29T10:49:19.685Z,24.03
2018-11-29T10:53:23.147Z,26.50
2018-11-29T10:57:26.727Z,20.87
2018-11-29T11:01:31.656Z,22.87
2018-11-29T11:05:35.177Z,20.97
2018-11-29T11:09:38.712Z,20.67
2018-11-29T11:13:42.315Z,19.10
2018-11-29T11:17:45.840Z,23.83
2018-11-29T11:21:49.370Z,14.93
2018-11-29T11:25:53.016Z,16.10
2018-11-29T11:29:56.602Z,16.07
2018-11-29T11:34:00.157Z,16.67
2018-11-29T11:38:05.031Z,16.77
2018-11-29T11:42:08.625Z,15.33
2018-11-29T11:46:12.269Z,15.87
2018-11-29T11:50:20.878Z,14.57
2018-11-29T11:54:24.381Z,14.97
2018-11-29T11:58:27.923Z,15.07
2018-11-29T12:02:31.576Z,15.43
2018-11-29T12:06:35.140Z,19.90
2018-11-29T12:10:40.396Z,17.83
2018-11-29T12:14:43.935Z,18.03
2018-11-29T12:18:47.609Z,16.77
2018-11-29T12:22:51.321Z,14.60
2018-11-29T12:26:54.865Z,15.87
2018-11-29T12:31:06.060Z,13.40
2018-11-29T12:35:12.989Z,14.03
2018-11-29T12:39:19.336Z,16.67
2018-11-29T12:43:23.137Z,16.60
2018-11-29T12:47:26.966Z,16.17
2018-11-29T12:51:30.578Z,16.13
2018-11-29T12:55:34.400Z,18.40
2018-11-29T12:59:38.284Z,15.53
2018-11-29T13:03:42.125Z,14.87
2018-11-29T13:07:45.717Z,13.17
2018-11-29T13:11:49.229Z,13.27
2018-11-29T13:15:53.097Z,15.47
2018-11-29T13:19:56.820Z,14.33
2018-11-29T13:24:03.118Z,14.93
2018-11-29T13:28:07.485Z,13.07
2018-11-29T13:32:11.441Z,12.73
2018-11-29T13:36:14.986Z,12.80
2018-11-29T13:44:22.188Z,12.17
2018-11-29T13:48:25.721Z,13.03
2018-11-29T13:52:29.936Z,12.73
2018-11-29T13:56:34.201Z,15.10
2018-11-29T14:00:40.257Z,14.50
2018-11-29T14:04:43.900Z,12.73
2018-11-29T14:08:47.856Z,12.83
2018-11-29T14:12:52.491Z,11.67
2018-11-29T14:16:56.476Z,15.47
2018-11-29T14:20:59.967Z,10.23
2018-11-29T14:25:10.516Z,9.63
2018-11-29T14:29:14.479Z,14.13
2018-11-29T14:33:18.701Z,10.47
2018-11-29T14:37:22.477Z,12.17
2018-11-29T14:41:26.027Z,12.50
2018-11-29T14:45:29.495Z,13.17
2018-11-29T14:49:33.426Z,12.67
2018-11-29T14:53:37.005Z,10.90
2018-11-29T14:57:53.798Z,12.30
2018-11-29T15:01:57.538Z,11.40
2018-11-29T15:06:02.133Z,12.20
2018-11-29T15:10:07.749Z,12.13
2018-11-29T15:14:11.295Z,14.63
2018-11-29T15:18:15.051Z,10.77
2018-11-29T15:22:18.678Z,12.30
2018-11-29T15:26:22.761Z,13.13
2018-11-29T15:30:26.313Z,16.17
2018-11-29T15:34:29.818Z,13.43
2018-11-29T15:38:33.419Z,11.97
2018-11-29T15:42:36.937Z,12.67
2018-11-29T15:46:40.421Z,10.20
2018-11-29T15:50:43.982Z,11.33
2018-11-29T15:54:47.526Z,12.60
2018-11-29T15:58:52.013Z,10.87
2018-11-29T16:02:56.690Z,10.60
2018-11-29T16:07:00.233Z,13.37
2018-11-29T16:11:03.777Z,14.53
2018-11-29T16:15:10.400Z,12.17
2018-11-29T16:19:14.012Z,15.90
2018-11-29T16:23:17.988Z,13.37
2018-11-29T16:27:21.464Z,12.90
2018-11-29T16:31:25.025Z,13.10
2018-11-29T16:35:28.538Z,13.37
2018-11-29T16:39:32.112Z,16.07
2018-11-29T16:43:35.608Z,12.13
2018-11-29T16:47:39.269Z,14.43
2018-11-29T16:51:42.815Z,13.53
2018-11-29T16:55:46.286Z,12.80
2018-11-29T16:59:49.836Z,19.33
2018-11-29T17:03:53.360Z,15.53
2018-11-29T17:07:56.873Z,12.97
2018-11-29T17:12:00.392Z,12.00
2018-11-29T17:16:04.097Z,16.80
2018-11-29T17:20:13.045Z,16.40
2018-11-29T17:24:16.581Z,16.77
2018-11-29T17:28:20.121Z,29.37
2018-11-29T17:32:23.629Z,15.70
2018-11-29T17:36:27.267Z,19.43
2018-11-29T17:40:31.085Z,18.23
2018-11-29T17:44:34.622Z,16.43
2018-11-29T17:48:38.137Z,17.10
2018-11-29T17:52:41.652Z,14.83
2018-11-29T17:56:45.124Z,17.80
2018-11-29T18:00:50.320Z,16.90
2018-11-29T18:04:53.828Z,17.57
2018-11-29T18:08:57.425Z,18.60
2018-11-29T18:13:17.284Z,22.60
2018-11-29T18:17:20.838Z,19.23
2018-11-29T18:21:24.347Z,20.80
2018-11-29T18:25:27.907Z,17.90
2018-11-29T18:29:31.746Z,19.00
2018-11-29T18:33:35.850Z,19.17
2018-11-29T18:37:40.988Z,17.57
2018-11-29T18:41:44.797Z,18.47
2018-11-29T18:45:48.642Z,22.90
2018-11-29T18:49:52.225Z,17.67
2018-11-29T18:53:56.031Z,18.83
2018-11-29T18:58:00.274Z,17.83
2018-11-29T19:02:05.914Z,21.10
2018-11-29T19:06:09.850Z,20.27
2018-11-29T19:10:17.472Z,18.43
2018-11-29T19:14:20.965Z,18.07
2018-11-29T19:18:24.554Z,17.40
2018-11-29T19:22:28.061Z,19.27
2018-11-29T19:26:31.917Z,20.33
2018-11-29T19:30:35.881Z,18.73
2018-11-29T19:34:39.450Z,19.47
2018-11-29T19:38:43.240Z,22.10
2018-11-29T19:42:46.815Z,24.10
2018-11-29T19:46:50.589Z,18.70
2018-11-29T19:50:54.114Z,19.70
2018-11-29T19:54:57.650Z,18.53
2018-11-29T19:59:02.363Z,20.07
2018-11-29T20:03:06.166Z,19.23
2018-11-29T20:07:09.741Z,20.20
2018-11-29T20:11:13.294Z,20.30
2018-11-29T20:15:19.455Z,18.57
2018-11-29T20:19:22.927Z,18.90
2018-11-29T20:23:26.414Z,23.17
2018-11-29T20:27:29.940Z,19.73
2018-11-29T20:31:33.567Z,18.13
2018-11-29T20:35:37.043Z,30.23
2018-11-29T20:39:40.567Z,21.80
2018-11-29T20:43:44.055Z,22.37
2018-11-29T20:47:48.159Z,19.27
2018-11-29T20:51:51.695Z,22.07
2018-11-29T20:55:55.134Z,20.77
2018-11-29T20:59:58.653Z,20.80
2018-11-29T21:04:02.188Z,22.83
2018-11-29T21:08:06.791Z,25.37
2018-11-29T21:12:10.374Z,23.13
2018-11-29T21:16:13.941Z,26.93
2018-11-29T21:20:20.296Z,24.53
2018-11-29T21:24:23.841Z,25.97
2018-11-29T21:28:29.206Z,22.43
2018-11-29T21:32:33.284Z,23.90
2018-11-29T21:36:36.756Z,22.87
2018-11-29T21:40:40.790Z,20.63
2018-11-29T21:44:44.288Z,24.07
2018-11-29T21:48:50.135Z,25.73
2018-11-29T21:52:54.877Z,23.83
2018-11-29T21:56:58.365Z,22.40
2018-11-29T22:01:01.923Z,24.30
2018-11-29T22:05:05.953Z,25.80
2018-11-29T22:09:09.545Z,27.90
2018-11-29T22:13:13.092Z,23.97
2018-11-29T22:17:16.694Z,23.23
2018-11-29T22:21:20.875Z,22.00
2018-11-29T22:25:24.461Z,21.33
2018-11-29T22:29:28.026Z,22.80
2018-11-29T22:33:31.847Z,19.67
2018-11-29T22:37:35.508Z,28.80
2018-11-29T22:41:39.135Z,23.03
2018-11-29T22:45:42.753Z,22.70
2018-11-29T22:49:46.269Z,24.17
2018-11-29T22:53:49.792Z,20.40
2018-11-29T22:57:53.312Z,23.30
2018-11-29T23:01:56.881Z,19.40
2018-11-29T23:06:00.434Z,19.37
2018-11-29T23:10:04.755Z,21.53
2018-11-29T23:14:09.046Z,22.83
2018-11-29T23:18:12.711Z,21.03
2018-11-29T23:22:16.200Z,21.83
2018-11-29T23:26:19.711Z,21.23
2018-11-29T23:30:23.255Z,24.03
2018-11-29T23:34:26.765Z,22.60
2018-11-29T23:38:30.273Z,20.07
2018-11-29T23:42:33.868Z,19.77
2018-11-29T23:46:37.413Z,17.90
2018-11-29T23:50:40.925Z,21.83
2018-11-29T23:54:44.467Z,19.00
2018-11-29T23:58:48.000Z,19.30
